sensor_id;sensor_type;location;lat;lon;timestamp;P1;durP1;ratioP1;P2;durP2;ratioP2
24279;SDS011;12395;42.808;23.408;2022-10-23T00:01:15;28.23;;;15.40;;
24279;SDS011;12395;42.808;23.408;2022-10-23T00:03:41;28.55;;;14.95;;
24279;SDS011;12395;42.808;23.408;2022-10-23T00:06:08;21.38;;;12.25;;
24279;SDS011;12395;42.808;23.408;2022-10-23T00:08:34;23.60;;;12.20;;
24279;SDS011;12395;42.808;23.408;2022-10-23T00:11:00;20.83;;;13.20;;
24279;SDS011;12395;42.808;23.408;2022-10-23T00:13:25;22.55;;;13.75;;
24279;SDS011;12395;42.808;23.408;2022-10-23T00:15:51;25.88;;;14.00;;
24279;SDS011;12395;42.808;23.408;2022-10-23T00:18:16;24.52;;;13.35;;
24279;SDS011;12395;42.808;23.408;2022-10-23T00:20:41;26.52;;;13.93;;
24279;SDS011;12395;42.808;23.408;2022-10-23T00:23:07;24.73;;;13.75;;
24279;SDS011;12395;42.808;23.408;2022-10-23T00:25:32;21.90;;;13.20;;
24279;SDS011;12395;42.808;23.408;2022-10-23T00:27:58;24.35;;;14.30;;
24279;SDS011;12395;42.808;23.408;2022-10-23T00:30:24;23.20;;;14.45;;
24279;SDS011;12395;42.808;23.408;2022-10-23T00:32:49;27.88;;;14.82;;
24279;SDS011;12395;42.808;23.408;2022-10-23T00:35:14;26.25;;;14.77;;
24279;SDS011;12395;42.808;23.408;2022-10-23T00:37:40;22.20;;;14.43;;
24279;SDS011;12395;42.808;23.408;2022-10-23T00:40:06;26.30;;;14.20;;
24279;SDS011;12395;42.808;23.408;2022-10-23T00:42:32;20.77;;;11.70;;
24279;SDS011;12395;42.808;23.408;2022-10-23T00:45:12;21.13;;;12.60;;
24279;SDS011;12395;42.808;23.408;2022-10-23T00:47:41;22.77;;;13.85;;
24279;SDS011;12395;42.808;23.408;2022-10-23T00:50:06;26.10;;;14.18;;
24279;SDS011;12395;42.808;23.408;2022-10-23T00:52:33;21.55;;;12.93;;
24279;SDS011;12395;42.808;23.408;2022-10-23T00:55:02;25.40;;;12.98;;
24279;SDS011;12395;42.808;23.408;2022-10-23T00:57:28;19.45;;;10.60;;
24279;SDS011;12395;42.808;23.408;2022-10-23T00:59:54;18.98;;;10.90;;
24279;SDS011;12395;42.808;23.408;2022-10-23T01:02:20;21.75;;;11.98;;
24279;SDS011;12395;42.808;23.408;2022-10-23T01:04:45;21.05;;;12.73;;
24279;SDS011;12395;42.808;23.408;2022-10-23T01:07:19;21.88;;;11.82;;
24279;SDS011;12395;42.808;23.408;2022-10-23T01:12:39;26.08;;;13.68;;
24279;SDS011;12395;42.808;23.408;2022-10-23T01:15:16;19.80;;;11.77;;
24279;SDS011;12395;42.808;23.408;2022-10-23T01:23:51;16.27;;;9.50;;
24279;SDS011;12395;42.808;23.408;2022-10-23T01:31:15;19.77;;;10.53;;
24279;SDS011;12395;42.808;23.408;2022-10-23T01:33:47;18.17;;;10.52;;
24279;SDS011;12395;42.808;23.408;2022-10-23T01:36:19;20.73;;;11.02;;
24279;SDS011;12395;42.808;23.408;2022-10-23T01:38:51;19.45;;;10.55;;
24279;SDS011;12395;42.808;23.408;2022-10-23T01:46:46;15.27;;;8.90;;
24279;SDS011;12395;42.808;23.408;2022-10-23T01:49:14;15.35;;;7.55;;
24279;SDS011;12395;42.808;23.408;2022-10-23T01:51:43;15.52;;;7.53;;
24279;SDS011;12395;42.808;23.408;2022-10-23T01:54:12;14.32;;;8.02;;
24279;SDS011;12395;42.808;23.408;2022-10-23T01:56:40;14.35;;;7.07;;
24279;SDS011;12395;42.808;23.408;2022-10-23T01:59:10;15.38;;;7.85;;
24279;SDS011;12395;42.808;23.408;2022-10-23T02:01:39;16.08;;;7.15;;
24279;SDS011;12395;42.808;23.408;2022-10-23T02:04:07;15.90;;;7.88;;
24279;SDS011;12395;42.808;23.408;2022-10-23T02:06:36;12.90;;;7.50;;
24279;SDS011;12395;42.808;23.408;2022-10-23T02:09:02;14.23;;;7.38;;
24279;SDS011;12395;42.808;23.408;2022-10-23T02:11:28;12.63;;;6.63;;
24279;SDS011;12395;42.808;23.408;2022-10-23T02:14:10;15.52;;;7.13;;
24279;SDS011;12395;42.808;23.408;2022-10-23T02:16:44;13.57;;;7.35;;
24279;SDS011;12395;42.808;23.408;2022-10-23T02:24:16;14.90;;;7.65;;
24279;SDS011;12395;42.808;23.408;2022-10-23T02:26:56;23.20;;;12.27;;
24279;SDS011;12395;42.808;23.408;2022-10-23T02:29:44;24.05;;;14.52;;
24279;SDS011;12395;42.808;23.408;2022-10-23T02:34:40;25.02;;;12.88;;
24279;SDS011;12395;42.808;23.408;2022-10-23T02:37:05;24.25;;;13.05;;
24279;SDS011;12395;42.808;23.408;2022-10-23T02:39:31;22.27;;;13.38;;
24279;SDS011;12395;42.808;23.408;2022-10-23T02:42:00;24.38;;;12.88;;
24279;SDS011;12395;42.808;23.408;2022-10-23T02:44:50;24.30;;;12.93;;
24279;SDS011;12395;42.808;23.408;2022-10-23T02:50:08;21.63;;;13.10;;
24279;SDS011;12395;42.808;23.408;2022-10-23T02:57:51;20.23;;;10.77;;
24279;SDS011;12395;42.808;23.408;2022-10-23T03:00:21;21.13;;;11.25;;
24279;SDS011;12395;42.808;23.408;2022-10-23T03:02:54;19.60;;;10.63;;
24279;SDS011;12395;42.808;23.408;2022-10-23T03:05:25;19.27;;;9.88;;
24279;SDS011;12395;42.808;23.408;2022-10-23T03:07:53;16.65;;;8.85;;
24279;SDS011;12395;42.808;23.408;2022-10-23T03:10:19;16.48;;;8.90;;
24279;SDS011;12395;42.808;23.408;2022-10-23T03:12:44;15.80;;;8.68;;
24279;SDS011;12395;42.808;23.408;2022-10-23T03:15:11;14.65;;;8.15;;
24279;SDS011;12395;42.808;23.408;2022-10-23T03:17:36;15.07;;;7.43;;
24279;SDS011;12395;42.808;23.408;2022-10-23T03:20:02;13.10;;;7.55;;
24279;SDS011;12395;42.808;23.408;2022-10-23T03:22:29;12.95;;;7.55;;
24279;SDS011;12395;42.808;23.408;2022-10-23T03:24:55;13.65;;;7.10;;
24279;SDS011;12395;42.808;23.408;2022-10-23T03:27:21;13.40;;;7.53;;
24279;SDS011;12395;42.808;23.408;2022-10-23T03:29:46;17.63;;;8.73;;
24279;SDS011;12395;42.808;23.408;2022-10-23T03:32:11;17.70;;;8.75;;
24279;SDS011;12395;42.808;23.408;2022-10-23T03:34:37;16.80;;;9.05;;
24279;SDS011;12395;42.808;23.408;2022-10-23T03:37:02;17.40;;;8.90;;
24279;SDS011;12395;42.808;23.408;2022-10-23T03:39:28;18.00;;;10.18;;
24279;SDS011;12395;42.808;23.408;2022-10-23T03:41:53;16.25;;;9.20;;
24279;SDS011;12395;42.808;23.408;2022-10-23T03:44:18;16.30;;;9.52;;
24279;SDS011;12395;42.808;23.408;2022-10-23T03:46:44;18.38;;;10.10;;
24279;SDS011;12395;42.808;23.408;2022-10-23T03:49:09;15.40;;;7.97;;
24279;SDS011;12395;42.808;23.408;2022-10-23T03:51:35;14.38;;;7.32;;
24279;SDS011;12395;42.808;23.408;2022-10-23T03:54:00;13.80;;;7.82;;
24279;SDS011;12395;42.808;23.408;2022-10-23T03:56:26;15.68;;;7.72;;
24279;SDS011;12395;42.808;23.408;2022-10-23T03:58:51;16.20;;;7.68;;
24279;SDS011;12395;42.808;23.408;2022-10-23T04:01:17;17.23;;;8.45;;
24279;SDS011;12395;42.808;23.408;2022-10-23T04:03:42;13.32;;;7.15;;
24279;SDS011;12395;42.808;23.408;2022-10-23T04:06:08;19.27;;;9.30;;
24279;SDS011;12395;42.808;23.408;2022-10-23T04:08:34;16.10;;;8.40;;
24279;SDS011;12395;42.808;23.408;2022-10-23T04:10:59;21.17;;;9.23;;
24279;SDS011;12395;42.808;23.408;2022-10-23T04:13:25;17.48;;;8.98;;
24279;SDS011;12395;42.808;23.408;2022-10-23T04:15:51;19.08;;;8.77;;
24279;SDS011;12395;42.808;23.408;2022-10-23T04:18:17;25.52;;;10.75;;
24279;SDS011;12395;42.808;23.408;2022-10-23T04:20:43;22.13;;;10.68;;
24279;SDS011;12395;42.808;23.408;2022-10-23T04:23:08;21.55;;;10.38;;
24279;SDS011;12395;42.808;23.408;2022-10-23T04:25:34;19.38;;;9.75;;
24279;SDS011;12395;42.808;23.408;2022-10-23T04:27:59;17.30;;;9.15;;
24279;SDS011;12395;42.808;23.408;2022-10-23T04:30:24;20.27;;;9.15;;
24279;SDS011;12395;42.808;23.408;2022-10-23T04:32:50;17.98;;;10.05;;
24279;SDS011;12395;42.808;23.408;2022-10-23T04:35:16;20.25;;;10.10;;
24279;SDS011;12395;42.808;23.408;2022-10-23T04:37:42;20.98;;;10.45;;
24279;SDS011;12395;42.808;23.408;2022-10-23T04:40:07;18.75;;;9.35;;
24279;SDS011;12395;42.808;23.408;2022-10-23T04:42:33;22.35;;;9.93;;
24279;SDS011;12395;42.808;23.408;2022-10-23T04:44:59;15.13;;;8.52;;
24279;SDS011;12395;42.808;23.408;2022-10-23T04:47:24;15.73;;;9.27;;
24279;SDS011;12395;42.808;23.408;2022-10-23T04:49:50;15.70;;;8.98;;
24279;SDS011;12395;42.808;23.408;2022-10-23T04:52:15;19.02;;;9.32;;
24279;SDS011;12395;42.808;23.408;2022-10-23T04:54:41;15.30;;;7.95;;
24279;SDS011;12395;42.808;23.408;2022-10-23T04:57:06;16.30;;;8.98;;
24279;SDS011;12395;42.808;23.408;2022-10-23T04:59:31;16.92;;;9.13;;
24279;SDS011;12395;42.808;23.408;2022-10-23T05:01:57;16.45;;;9.73;;
24279;SDS011;12395;42.808;23.408;2022-10-23T05:04:22;15.35;;;8.65;;
24279;SDS011;12395;42.808;23.408;2022-10-23T05:06:48;19.33;;;9.57;;
24279;SDS011;12395;42.808;23.408;2022-10-23T05:09:13;16.83;;;8.90;;
24279;SDS011;12395;42.808;23.408;2022-10-23T05:11:38;18.33;;;9.45;;
24279;SDS011;12395;42.808;23.408;2022-10-23T05:14:04;19.73;;;10.07;;
24279;SDS011;12395;42.808;23.408;2022-10-23T05:16:42;17.58;;;8.80;;
24279;SDS011;12395;42.808;23.408;2022-10-23T05:19:16;16.17;;;8.25;;
24279;SDS011;12395;42.808;23.408;2022-10-23T05:21:45;15.82;;;8.50;;
24279;SDS011;12395;42.808;23.408;2022-10-23T05:24:13;12.77;;;7.65;;
24279;SDS011;12395;42.808;23.408;2022-10-23T05:26:39;15.23;;;7.63;;
24279;SDS011;12395;42.808;23.408;2022-10-23T05:29:04;16.23;;;8.52;;
24279;SDS011;12395;42.808;23.408;2022-10-23T05:31:29;18.35;;;8.98;;
24279;SDS011;12395;42.808;23.408;2022-10-23T05:33:58;15.13;;;8.27;;
24279;SDS011;12395;42.808;23.408;2022-10-23T05:36:24;15.95;;;8.30;;
24279;SDS011;12395;42.808;23.408;2022-10-23T05:38:50;17.67;;;8.60;;
24279;SDS011;12395;42.808;23.408;2022-10-23T05:41:17;14.45;;;7.40;;
24279;SDS011;12395;42.808;23.408;2022-10-23T05:43:42;18.13;;;8.73;;
24279;SDS011;12395;42.808;23.408;2022-10-23T05:46:07;18.02;;;9.15;;
24279;SDS011;12395;42.808;23.408;2022-10-23T05:48:33;17.58;;;9.02;;
24279;SDS011;12395;42.808;23.408;2022-10-23T05:51:08;20.10;;;8.85;;
24279;SDS011;12395;42.808;23.408;2022-10-23T05:53:35;17.35;;;8.45;;
24279;SDS011;12395;42.808;23.408;2022-10-23T05:56:04;19.25;;;8.32;;
24279;SDS011;12395;42.808;23.408;2022-10-23T05:58:30;17.63;;;8.55;;
24279;SDS011;12395;42.808;23.408;2022-10-23T06:00:56;15.27;;;8.23;;
24279;SDS011;12395;42.808;23.408;2022-10-23T06:03:21;16.95;;;9.13;;
24279;SDS011;12395;42.808;23.408;2022-10-23T06:05:50;17.58;;;9.50;;
24279;SDS011;12395;42.808;23.408;2022-10-23T06:08:16;20.23;;;9.88;;
24279;SDS011;12395;42.808;23.408;2022-10-23T06:10:41;17.45;;;8.57;;
24279;SDS011;12395;42.808;23.408;2022-10-23T06:13:07;19.83;;;8.50;;
24279;SDS011;12395;42.808;23.408;2022-10-23T06:15:32;15.95;;;8.35;;
24279;SDS011;12395;42.808;23.408;2022-10-23T06:18:01;16.83;;;8.93;;
24279;SDS011;12395;42.808;23.408;2022-10-23T06:20:28;16.42;;;7.75;;
24279;SDS011;12395;42.808;23.408;2022-10-23T06:22:53;13.95;;;7.88;;
24279;SDS011;12395;42.808;23.408;2022-10-23T06:25:19;17.00;;;8.68;;
24279;SDS011;12395;42.808;23.408;2022-10-23T06:27:44;14.20;;;7.97;;
24279;SDS011;12395;42.808;23.408;2022-10-23T06:30:10;15.35;;;8.15;;
24279;SDS011;12395;42.808;23.408;2022-10-23T06:32:36;16.50;;;8.27;;
24279;SDS011;12395;42.808;23.408;2022-10-23T06:35:01;15.77;;;7.95;;
24279;SDS011;12395;42.808;23.408;2022-10-23T06:37:27;13.82;;;7.93;;
24279;SDS011;12395;42.808;23.408;2022-10-23T06:39:52;15.85;;;7.80;;
24279;SDS011;12395;42.808;23.408;2022-10-23T06:42:17;14.65;;;7.72;;
24279;SDS011;12395;42.808;23.408;2022-10-23T06:44:43;13.65;;;7.38;;
24279;SDS011;12395;42.808;23.408;2022-10-23T06:47:08;15.77;;;7.60;;
24279;SDS011;12395;42.808;23.408;2022-10-23T06:49:34;15.05;;;7.60;;
24279;SDS011;12395;42.808;23.408;2022-10-23T06:52:00;19.33;;;7.63;;
24279;SDS011;12395;42.808;23.408;2022-10-23T06:54:25;15.60;;;7.68;;
24279;SDS011;12395;42.808;23.408;2022-10-23T06:56:51;16.67;;;7.97;;
24279;SDS011;12395;42.808;23.408;2022-10-23T06:59:17;17.52;;;8.25;;
24279;SDS011;12395;42.808;23.408;2022-10-23T07:01:43;17.67;;;8.13;;
24279;SDS011;12395;42.808;23.408;2022-10-23T07:04:09;15.60;;;8.23;;
24279;SDS011;12395;42.808;23.408;2022-10-23T07:06:34;15.60;;;8.05;;
24279;SDS011;12395;42.808;23.408;2022-10-23T07:08:59;11.75;;;7.53;;
24279;SDS011;12395;42.808;23.408;2022-10-23T07:11:25;16.60;;;7.63;;
24279;SDS011;12395;42.808;23.408;2022-10-23T07:13:52;12.52;;;7.20;;
24279;SDS011;12395;42.808;23.408;2022-10-23T07:16:19;14.40;;;6.78;;
24279;SDS011;12395;42.808;23.408;2022-10-23T07:18:46;13.38;;;7.50;;
24279;SDS011;12395;42.808;23.408;2022-10-23T07:21:12;13.73;;;7.20;;
24279;SDS011;12395;42.808;23.408;2022-10-23T07:23:38;12.32;;;6.90;;
24279;SDS011;12395;42.808;23.408;2022-10-23T07:26:08;13.30;;;7.00;;
24279;SDS011;12395;42.808;23.408;2022-10-23T07:28:38;14.23;;;7.03;;
24279;SDS011;12395;42.808;23.408;2022-10-23T07:31:05;13.70;;;6.32;;
24279;SDS011;12395;42.808;23.408;2022-10-23T07:33:31;11.32;;;6.57;;
24279;SDS011;12395;42.808;23.408;2022-10-23T07:35:57;13.43;;;6.53;;
24279;SDS011;12395;42.808;23.408;2022-10-23T07:38:22;10.27;;;6.40;;
24279;SDS011;12395;42.808;23.408;2022-10-23T07:40:48;13.07;;;5.97;;
24279;SDS011;12395;42.808;23.408;2022-10-23T07:43:13;10.10;;;5.38;;
24279;SDS011;12395;42.808;23.408;2022-10-23T07:45:39;9.23;;;5.30;;
24279;SDS011;12395;42.808;23.408;2022-10-23T07:48:05;10.38;;;5.55;;
24279;SDS011;12395;42.808;23.408;2022-10-23T07:50:30;8.77;;;4.97;;
24279;SDS011;12395;42.808;23.408;2022-10-23T07:52:56;12.55;;;4.82;;
24279;SDS011;12395;42.808;23.408;2022-10-23T07:55:22;8.32;;;4.35;;
24279;SDS011;12395;42.808;23.408;2022-10-23T07:57:48;6.97;;;3.90;;
24279;SDS011;12395;42.808;23.408;2022-10-23T08:00:13;6.55;;;3.78;;
24279;SDS011;12395;42.808;23.408;2022-10-23T08:02:39;6.78;;;4.18;;
24279;SDS011;12395;42.808;23.408;2022-10-23T08:05:05;9.05;;;4.35;;
24279;SDS011;12395;42.808;23.408;2022-10-23T08:07:30;8.02;;;3.95;;
24279;SDS011;12395;42.808;23.408;2022-10-23T08:09:56;6.50;;;4.22;;
24279;SDS011;12395;42.808;23.408;2022-10-23T08:12:21;5.90;;;3.88;;
24279;SDS011;12395;42.808;23.408;2022-10-23T08:14:46;7.50;;;3.70;;
24279;SDS011;12395;42.808;23.408;2022-10-23T08:17:12;7.07;;;3.42;;
24279;SDS011;12395;42.808;23.408;2022-10-23T08:19:37;8.85;;;4.13;;
24279;SDS011;12395;42.808;23.408;2022-10-23T08:22:03;7.85;;;3.75;;
24279;SDS011;12395;42.808;23.408;2022-10-23T08:24:28;6.15;;;3.35;;
24279;SDS011;12395;42.808;23.408;2022-10-23T08:26:54;5.18;;;3.45;;
24279;SDS011;12395;42.808;23.408;2022-10-23T08:29:19;7.95;;;3.70;;
24279;SDS011;12395;42.808;23.408;2022-10-23T08:31:45;4.85;;;3.15;;
24279;SDS011;12395;42.808;23.408;2022-10-23T08:34:10;5.60;;;3.20;;
24279;SDS011;12395;42.808;23.408;2022-10-23T08:36:36;4.00;;;2.90;;
24279;SDS011;12395;42.808;23.408;2022-10-23T08:39:03;5.50;;;2.80;;
24279;SDS011;12395;42.808;23.408;2022-10-23T08:46:54;4.55;;;3.00;;
24279;SDS011;12395;42.808;23.408;2022-10-23T08:49:54;3.22;;;2.45;;
24279;SDS011;12395;42.808;23.408;2022-10-23T08:54:51;4.82;;;2.55;;
24279;SDS011;12395;42.808;23.408;2022-10-23T08:57:32;5.18;;;2.50;;
24279;SDS011;12395;42.808;23.408;2022-10-23T09:00:04;6.55;;;2.45;;
24279;SDS011;12395;42.808;23.408;2022-10-23T09:02:51;6.18;;;2.47;;
24279;SDS011;12395;42.808;23.408;2022-10-23T09:10:17;4.25;;;2.15;;
24279;SDS011;12395;42.808;23.408;2022-10-23T09:16:01;4.45;;;2.08;;
24279;SDS011;12395;42.808;23.408;2022-10-23T09:18:38;1.88;;;1.60;;
24279;SDS011;12395;42.808;23.408;2022-10-23T09:23:34;1.77;;;1.60;;
24279;SDS011;12395;42.808;23.408;2022-10-23T09:26:00;2.80;;;1.90;;
24279;SDS011;12395;42.808;23.408;2022-10-23T09:28:30;6.20;;;1.70;;
24279;SDS011;12395;42.808;23.408;2022-10-23T09:31:06;2.17;;;1.60;;
24279;SDS011;12395;42.808;23.408;2022-10-23T09:33:32;5.28;;;1.90;;
24279;SDS011;12395;42.808;23.408;2022-10-23T09:41:03;3.65;;;1.95;;
24279;SDS011;12395;42.808;23.408;2022-10-23T09:43:34;2.95;;;1.95;;
24279;SDS011;12395;42.808;23.408;2022-10-23T09:46:01;5.80;;;2.08;;
24279;SDS011;12395;42.808;23.408;2022-10-23T09:48:29;4.65;;;2.00;;
24279;SDS011;12395;42.808;23.408;2022-10-23T09:50:59;4.22;;;1.80;;
24279;SDS011;12395;42.808;23.408;2022-10-23T09:56:01;2.42;;;1.80;;
24279;SDS011;12395;42.808;23.408;2022-10-23T09:58:57;4.55;;;1.90;;
24279;SDS011;12395;42.808;23.408;2022-10-23T10:01:30;2.50;;;1.70;;
24279;SDS011;12395;42.808;23.408;2022-10-23T10:03:57;4.07;;;1.80;;
24279;SDS011;12395;42.808;23.408;2022-10-23T10:06:27;2.88;;;1.63;;
24279;SDS011;12395;42.808;23.408;2022-10-23T10:08:55;2.03;;;1.83;;
24279;SDS011;12395;42.808;23.408;2022-10-23T10:11:36;2.42;;;1.58;;
24279;SDS011;12395;42.808;23.408;2022-10-23T10:17:16;4.35;;;1.98;;
24279;SDS011;12395;42.808;23.408;2022-10-23T10:22:47;3.22;;;1.70;;
24279;SDS011;12395;42.808;23.408;2022-10-23T10:27:58;4.45;;;1.88;;
24279;SDS011;12395;42.808;23.408;2022-10-23T10:30:48;3.13;;;1.88;;
24279;SDS011;12395;42.808;23.408;2022-10-23T10:33:47;4.32;;;2.35;;
24279;SDS011;12395;42.808;23.408;2022-10-23T10:36:19;4.53;;;1.90;;
24279;SDS011;12395;42.808;23.408;2022-10-23T10:42:15;5.95;;;2.00;;
24279;SDS011;12395;42.808;23.408;2022-10-23T10:50:29;3.97;;;1.95;;
24279;SDS011;12395;42.808;23.408;2022-10-23T10:55:48;2.65;;;1.90;;
24279;SDS011;12395;42.808;23.408;2022-10-23T11:00:45;1.95;;;1.48;;
24279;SDS011;12395;42.808;23.408;2022-10-23T11:05:45;2.72;;;1.77;;
24279;SDS011;12395;42.808;23.408;2022-10-23T11:08:17;3.38;;;1.83;;
24279;SDS011;12395;42.808;23.408;2022-10-23T11:10:47;3.63;;;1.63;;
24279;SDS011;12395;42.808;23.408;2022-10-23T11:13:24;3.10;;;1.65;;
24279;SDS011;12395;42.808;23.408;2022-10-23T11:15:50;2.20;;;1.70;;
24279;SDS011;12395;42.808;23.408;2022-10-23T11:18:22;3.13;;;1.98;;
24279;SDS011;12395;42.808;23.408;2022-10-23T11:23:55;2.92;;;2.08;;
24279;SDS011;12395;42.808;23.408;2022-10-23T11:26:51;4.97;;;2.28;;
24279;SDS011;12395;42.808;23.408;2022-10-23T11:35:17;2.63;;;2.10;;
24279;SDS011;12395;42.808;23.408;2022-10-23T11:38:27;2.78;;;1.63;;
24279;SDS011;12395;42.808;23.408;2022-10-23T11:41:02;7.55;;;2.13;;
24279;SDS011;12395;42.808;23.408;2022-10-23T11:43:45;3.40;;;1.95;;
24279;SDS011;12395;42.808;23.408;2022-10-23T11:48:46;3.08;;;1.92;;
24279;SDS011;12395;42.808;23.408;2022-10-23T11:56:37;2.67;;;2.00;;
24279;SDS011;12395;42.808;23.408;2022-10-23T11:59:29;5.72;;;2.40;;
24279;SDS011;12395;42.808;23.408;2022-10-23T12:04:48;3.55;;;2.17;;
24279;SDS011;12395;42.808;23.408;2022-10-23T12:07:23;3.92;;;2.13;;
24279;SDS011;12395;42.808;23.408;2022-10-23T12:15:15;5.13;;;2.20;;
24279;SDS011;12395;42.808;23.408;2022-10-23T12:17:44;6.80;;;2.20;;
24279;SDS011;12395;42.808;23.408;2022-10-23T12:33:34;7.43;;;2.20;;
24279;SDS011;12395;42.808;23.408;2022-10-23T12:38:44;3.53;;;1.92;;
24279;SDS011;12395;42.808;23.408;2022-10-23T12:41:20;1.85;;;1.58;;
24279;SDS011;12395;42.808;23.408;2022-10-23T12:43:53;2.00;;;1.42;;
24279;SDS011;12395;42.808;23.408;2022-10-23T12:48:57;2.20;;;1.50;;
24279;SDS011;12395;42.808;23.408;2022-10-23T12:51:24;1.77;;;1.38;;
24279;SDS011;12395;42.808;23.408;2022-10-23T12:53:51;3.80;;;1.45;;
24279;SDS011;12395;42.808;23.408;2022-10-23T12:56:17;2.05;;;1.35;;
24279;SDS011;12395;42.808;23.408;2022-10-23T12:58:56;4.45;;;1.60;;
24279;SDS011;12395;42.808;23.408;2022-10-23T13:01:29;1.95;;;1.20;;
24279;SDS011;12395;42.808;23.408;2022-10-23T13:06:46;2.00;;;1.50;;
24279;SDS011;12395;42.808;23.408;2022-10-23T13:09:21;4.68;;;1.80;;
24279;SDS011;12395;42.808;23.408;2022-10-23T13:11:50;2.63;;;1.67;;
24279;SDS011;12395;42.808;23.408;2022-10-23T13:14:53;2.67;;;2.00;;
24279;SDS011;12395;42.808;23.408;2022-10-23T13:17:19;3.85;;;1.92;;
24279;SDS011;12395;42.808;23.408;2022-10-23T13:19:44;2.88;;;1.65;;
24279;SDS011;12395;42.808;23.408;2022-10-23T13:22:17;3.20;;;1.60;;
24279;SDS011;12395;42.808;23.408;2022-10-23T13:24:45;2.80;;;1.63;;
24279;SDS011;12395;42.808;23.408;2022-10-23T13:27:24;2.63;;;1.45;;
24279;SDS011;12395;42.808;23.408;2022-10-23T13:29:49;3.55;;;1.85;;
24279;SDS011;12395;42.808;23.408;2022-10-23T13:32:25;2.75;;;1.58;;
24279;SDS011;12395;42.808;23.408;2022-10-23T13:34:54;2.55;;;1.70;;
24279;SDS011;12395;42.808;23.408;2022-10-23T13:40:00;4.07;;;1.70;;
24279;SDS011;12395;42.808;23.408;2022-10-23T13:42:30;4.88;;;1.58;;
24279;SDS011;12395;42.808;23.408;2022-10-23T13:44:55;2.38;;;1.70;;
24279;SDS011;12395;42.808;23.408;2022-10-23T13:47:21;3.33;;;1.80;;
24279;SDS011;12395;42.808;23.408;2022-10-23T13:49:46;2.75;;;1.75;;
24279;SDS011;12395;42.808;23.408;2022-10-23T13:52:12;2.00;;;1.50;;
24279;SDS011;12395;42.808;23.408;2022-10-23T13:54:39;4.93;;;1.55;;
24279;SDS011;12395;42.808;23.408;2022-10-23T13:57:05;1.50;;;1.40;;
24279;SDS011;12395;42.808;23.408;2022-10-23T13:59:33;2.80;;;1.45;;
24279;SDS011;12395;42.808;23.408;2022-10-23T14:01:58;4.18;;;1.67;;
24279;SDS011;12395;42.808;23.408;2022-10-23T14:04:24;7.43;;;2.00;;
24279;SDS011;12395;42.808;23.408;2022-10-23T14:06:50;2.95;;;1.60;;
24279;SDS011;12395;42.808;23.408;2022-10-23T14:09:18;2.70;;;1.45;;
24279;SDS011;12395;42.808;23.408;2022-10-23T14:11:44;2.78;;;1.80;;
24279;SDS011;12395;42.808;23.408;2022-10-23T14:14:09;1.50;;;1.40;;
24279;SDS011;12395;42.808;23.408;2022-10-23T14:16:35;3.72;;;1.55;;
24279;SDS011;12395;42.808;23.408;2022-10-23T14:19:00;3.03;;;1.50;;
24279;SDS011;12395;42.808;23.408;2022-10-23T14:21:26;4.15;;;1.60;;
24279;SDS011;12395;42.808;23.408;2022-10-23T14:23:52;2.33;;;1.40;;
24279;SDS011;12395;42.808;23.408;2022-10-23T14:26:19;2.25;;;1.33;;
24279;SDS011;12395;42.808;23.408;2022-10-23T14:28:46;10.00;;;2.30;;
24279;SDS011;12395;42.808;23.408;2022-10-23T14:31:15;3.03;;;1.60;;
24279;SDS011;12395;42.808;23.408;2022-10-23T14:33:42;5.38;;;1.77;;
24279;SDS011;12395;42.808;23.408;2022-10-23T14:36:08;2.70;;;1.70;;
24279;SDS011;12395;42.808;23.408;2022-10-23T14:38:35;2.88;;;1.88;;
24279;SDS011;12395;42.808;23.408;2022-10-23T14:41:00;2.85;;;1.80;;
24279;SDS011;12395;42.808;23.408;2022-10-23T14:43:26;5.80;;;2.10;;
24279;SDS011;12395;42.808;23.408;2022-10-23T14:45:51;3.38;;;1.80;;
24279;SDS011;12395;42.808;23.408;2022-10-23T14:48:17;2.55;;;1.70;;
24279;SDS011;12395;42.808;23.408;2022-10-23T14:50:43;5.93;;;2.10;;
24279;SDS011;12395;42.808;23.408;2022-10-23T14:53:11;2.97;;;1.88;;
24279;SDS011;12395;42.808;23.408;2022-10-23T14:55:36;3.38;;;1.80;;
24279;SDS011;12395;42.808;23.408;2022-10-23T14:58:02;3.10;;;1.55;;
24279;SDS011;12395;42.808;23.408;2022-10-23T15:00:28;4.18;;;1.90;;
24279;SDS011;12395;42.808;23.408;2022-10-23T15:02:53;3.60;;;1.70;;
24279;SDS011;12395;42.808;23.408;2022-10-23T15:05:18;4.15;;;1.90;;
24279;SDS011;12395;42.808;23.408;2022-10-23T15:07:44;8.02;;;1.90;;
24279;SDS011;12395;42.808;23.408;2022-10-23T15:10:09;2.55;;;2.00;;
24279;SDS011;12395;42.808;23.408;2022-10-23T15:12:35;5.32;;;1.80;;
24279;SDS011;12395;42.808;23.408;2022-10-23T15:15:00;3.58;;;2.00;;
24279;SDS011;12395;42.808;23.408;2022-10-23T15:17:26;5.15;;;2.00;;
24279;SDS011;12395;42.808;23.408;2022-10-23T15:19:51;6.63;;;1.83;;
24279;SDS011;12395;42.808;23.408;2022-10-23T15:22:17;2.13;;;1.67;;
24279;SDS011;12395;42.808;23.408;2022-10-23T15:24:43;3.47;;;1.65;;
24279;SDS011;12395;42.808;23.408;2022-10-23T15:27:09;2.67;;;1.70;;
24279;SDS011;12395;42.808;23.408;2022-10-23T15:29:35;2.90;;;1.60;;
24279;SDS011;12395;42.808;23.408;2022-10-23T15:32:00;2.10;;;1.45;;
24279;SDS011;12395;42.808;23.408;2022-10-23T15:34:27;2.58;;;1.60;;
24279;SDS011;12395;42.808;23.408;2022-10-23T15:36:54;2.47;;;1.50;;
24279;SDS011;12395;42.808;23.408;2022-10-23T15:41:51;2.35;;;1.40;;
24279;SDS011;12395;42.808;23.408;2022-10-23T15:44:20;1.52;;;1.13;;
24279;SDS011;12395;42.808;23.408;2022-10-23T15:46:47;2.00;;;1.60;;
24279;SDS011;12395;42.808;23.408;2022-10-23T15:49:12;3.50;;;2.22;;
24279;SDS011;12395;42.808;23.408;2022-10-23T15:51:38;2.38;;;1.60;;
24279;SDS011;12395;42.808;23.408;2022-10-23T15:54:05;3.00;;;1.50;;
24279;SDS011;12395;42.808;23.408;2022-10-23T15:56:32;1.65;;;1.35;;
24279;SDS011;12395;42.808;23.408;2022-10-23T15:58:58;2.80;;;1.30;;
24279;SDS011;12395;42.808;23.408;2022-10-23T16:01:24;2.75;;;1.52;;
24279;SDS011;12395;42.808;23.408;2022-10-23T16:03:49;3.00;;;1.60;;
24279;SDS011;12395;42.808;23.408;2022-10-23T16:06:15;2.85;;;1.58;;
24279;SDS011;12395;42.808;23.408;2022-10-23T16:08:42;2.08;;;1.30;;
24279;SDS011;12395;42.808;23.408;2022-10-23T16:13:44;3.05;;;1.35;;
24279;SDS011;12395;42.808;23.408;2022-10-23T16:16:09;3.17;;;1.40;;
24279;SDS011;12395;42.808;23.408;2022-10-23T16:18:36;2.33;;;1.38;;
24279;SDS011;12395;42.808;23.408;2022-10-23T16:21:02;1.92;;;1.45;;
24279;SDS011;12395;42.808;23.408;2022-10-23T16:23:27;1.90;;;1.30;;
24279;SDS011;12395;42.808;23.408;2022-10-23T16:25:53;3.72;;;1.42;;
24279;SDS011;12395;42.808;23.408;2022-10-23T16:28:19;2.80;;;1.40;;
24279;SDS011;12395;42.808;23.408;2022-10-23T16:30:44;3.20;;;1.75;;
24279;SDS011;12395;42.808;23.408;2022-10-23T16:33:10;1.95;;;1.40;;
24279;SDS011;12395;42.808;23.408;2022-10-23T16:35:36;2.58;;;1.38;;
24279;SDS011;12395;42.808;23.408;2022-10-23T16:38:02;3.38;;;1.45;;
24279;SDS011;12395;42.808;23.408;2022-10-23T16:40:28;1.92;;;1.33;;
24279;SDS011;12395;42.808;23.408;2022-10-23T16:42:53;3.15;;;2.05;;
24279;SDS011;12395;42.808;23.408;2022-10-23T16:45:18;2.33;;;1.20;;
24279;SDS011;12395;42.808;23.408;2022-10-23T16:47:44;2.25;;;1.50;;
24279;SDS011;12395;42.808;23.408;2022-10-23T16:50:09;3.08;;;1.50;;
24279;SDS011;12395;42.808;23.408;2022-10-23T16:52:34;2.88;;;1.52;;